Time;durP1;ratioP1;P1;durP2;ratioP2;P2;SDS_P1;SDS_P2;PMS_P1;PMS_P2;Temp;Humidity;BMP_temperature;BMP_pressure;BME280_temperature;BME280_humidity;BME280_pressure;Samples;Min_cycle;Max_cycle;Signal;HPM_P1;HPM_P2
2022/11/18 00:01:48;;;;;;;0.00;0.00;;;;;;;3.80;72.87;101818.69;5011160;28;20457;-73
2022/11/18 00:04:15;;;;;;;0.30;0.10;;;;;;;3.81;72.88;101823.03;5015752;28;20049;-74
2022/11/18 00:06:42;;;;;;;1.10;0.10;;;;;;;3.82;72.96;101822.19;5015178;28;20050;-73
2022/11/18 00:09:09;;;;;;;3.75;0.13;;;;;;;3.82;73.28;101824.78;5017209;28;20102;-73
2022/11/18 00:14:23;;;;;;;0.30;0.10;;;;;;;3.85;72.50;101823.13;5021616;28;20056;-73
2022/11/18 00:16:53;;;;;;;1.27;0.10;;;;;;;3.85;72.46;101818.81;5018305;28;20550;-73
2022/11/18 00:19:21;;;;;;;0.10;0.10;;;;;;;3.83;72.98;101823.94;5016821;28;20054;-73
2022/11/18 00:21:48;;;;;;;0.63;0.00;;;;;;;3.85;72.67;101825.72;5016713;28;20054;-73
2022/11/18 00:24:15;;;;;;;0.77;0.10;;;;;;;3.84;72.75;101819.63;5014892;28;20136;-74
2022/11/18 00:26:42;;;;;;;0.55;0.10;;;;;;;3.83;72.20;101817.91;5015539;28;20498;-73
2022/11/18 00:29:10;;;;;;;1.30;0.10;;;;;;;3.85;72.40;101823.13;5016897;28;20048;-73
2022/11/18 00:31:37;;;;;;;1.20;0.10;;;;;;;3.86;72.57;101822.28;5018909;28;20052;-74
2022/11/18 00:34:06;;;;;;;0.75;0.20;;;;;;;3.87;72.17;101829.19;5013415;28;20049;-74
2022/11/18 00:36:33;;;;;;;1.33;0.20;;;;;;;3.85;72.48;101817.94;5020224;28;20048;-73
2022/11/18 00:39:00;;;;;;;2.25;0.13;;;;;;;3.81;72.26;101820.47;5014289;28;20491;-73
2022/11/18 00:42:49;;;;;;;0.00;0.00;;;;;;;3.84;72.37;101822.22;5018457;28;20046;-72
2022/11/18 00:44:13;;;;;;;0.80;0.10;;;;;;;3.81;72.59;101816.97;5018817;28;20072;-72
2022/11/18 00:46:40;;;;;;;0.17;0.10;;;;;;;3.83;72.14;101834.28;5019915;28;20127;-73
2022/11/18 00:49:08;;;;;;;0.20;0.00;;;;;;;3.81;72.00;101827.31;5019399;28;20061;-72
2022/11/18 00:51:36;;;;;;;1.33;0.05;;;;;;;3.82;72.25;101832.53;5017925;28;20048;-72
2022/11/18 00:54:03;;;;;;;2.20;0.00;;;;;;;3.81;72.10;101824.72;5018084;28;20050;-73
2022/11/18 00:56:30;;;;;;;0.98;0.10;;;;;;;3.80;72.50;101829.03;5021958;28;20042;-73
2022/11/18 00:58:57;;;;;;;0.10;0.00;;;;;;;3.82;72.33;101834.25;5013367;28;20057;-72
2022/11/18 01:01:24;;;;;;;1.73;0.00;;;;;;;3.77;72.08;101831.53;5014947;28;20041;-73
2022/11/18 01:03:51;;;;;;;0.68;0.00;;;;;;;3.79;72.31;101827.28;5012810;28;20495;-77
2022/11/18 01:06:20;;;;;;;0.73;0.10;;;;;;;3.82;72.56;101840.28;5016257;28;20433;-72
2022/11/18 01:08:47;;;;;;;0.43;0.40;;;;;;;3.82;71.99;101840.28;5017081;28;20060;-72
2022/11/18 01:13:58;;;;;;;0.00;0.00;;;;;;;3.83;71.93;101849.78;5016988;28;20103;-73
2022/11/18 01:16:28;;;;;;;0.30;0.00;;;;;;;3.83;71.83;101846.31;5016428;28;20503;-72
2022/11/18 01:18:55;;;;;;;0.22;0.22;;;;;;;3.86;72.33;101850.72;5013297;28;20062;-73
2022/11/18 01:21:23;;;;;;;1.00;0.10;;;;;;;3.83;71.98;101839.44;5018046;28;20470;-73
2022/11/18 01:23:50;;;;;;;1.40;0.10;;;;;;;3.81;72.30;101833.38;5015082;28;20053;-73
2022/11/18 01:26:18;;;;;;;0.30;0.05;;;;;;;3.89;72.09;101851.66;5013956;28;20046;-73
2022/11/18 01:28:45;;;;;;;0.17;0.00;;;;;;;3.90;72.20;101857.69;5018494;28;20053;-73
2022/11/18 01:31:14;;;;;;;0.80;0.00;;;;;;;3.90;72.12;101852.53;5019312;28;20037;-73
2022/11/18 01:33:41;;;;;;;0.20;0.10;;;;;;;3.89;72.17;101855.97;5018940;28;20654;-73
2022/11/18 01:36:15;;;;;;;0.10;0.00;;;;;;;3.87;72.29;101857.63;5014741;28;20548;-73
2022/11/18 01:38:44;;;;;;;0.20;0.05;;;;;;;3.83;72.77;101848.91;5018298;28;20057;-73
2022/11/18 01:41:10;;;;;;;0.20;0.10;;;;;;;3.79;72.29;101839.34;5014885;28;20046;-73
2022/11/18 01:43:53;;;;;;;1.65;0.10;;;;;;;3.79;72.29;101840.22;5024984;28;20041;-73
2022/11/18 01:46:21;;;;;;;1.65;0.10;;;;;;;3.79;72.21;101841.94;5018952;28;20050;-73
2022/11/18 01:48:50;;;;;;;2.20;0.00;;;;;;;3.72;72.39;101833.13;5020210;28;20552;-73
2022/11/18 01:51:23;;;;;;;1.40;0.00;;;;;;;3.77;72.03;101852.22;5018175;28;20056;-73
2022/11/18 01:53:59;;;;;;;1.00;0.10;;;;;;;3.78;72.92;101853.06;5020834;28;20129;-72
2022/11/18 01:56:32;;;;;;;0.88;0.08;;;;;;;3.79;72.57;101855.72;5014994;28;20053;-73
2022/11/18 01:59:03;;;;;;;0.00;0.00;;;;;;;3.77;72.08;101846.16;5017570;28;20053;-73
2022/11/18 02:01:30;;;;;;;1.80;0.10;;;;;;;3.77;72.31;101847.03;5021351;28;20043;-73
2022/11/18 02:03:57;;;;;;;0.50;0.10;;;;;;;3.79;72.78;101844.50;5018611;28;20061;-73
2022/11/18 02:06:24;;;;;;;1.88;0.10;;;;;;;3.68;72.75;101836.47;5022178;28;20382;-73
2022/11/18 02:08:52;;;;;;;1.60;0.10;;;;;;;3.79;72.14;101844.50;5020133;28;20411;-73
2022/11/18 02:14:07;;;;;;;0.65;0.08;;;;;;;3.80;72.33;101846.25;5016866;28;20636;-73
2022/11/18 02:16:48;;;;;;;0.28;0.00;;;;;;;3.81;72.36;101842.81;5017223;28;20396;-73
2022/11/18 02:19:32;;;;;;;0.88;0.10;;;;;;;3.81;71.97;101848.00;5018336;28;20441;-72
2022/11/18 02:22:19;;;;;;;1.35;0.10;;;;;;;3.80;72.12;101836.78;5019465;28;20133;-74
2022/11/18 02:24:59;;;;;;;1.88;0.10;;;;;;;3.81;72.27;101848.00;5021077;28;20034;-72
2022/11/18 02:27:57;;;;;;;1.25;0.10;;;;;;;3.81;71.99;101843.72;5018651;28;20053;-73
2022/11/18 02:30:26;;;;;;;1.27;0.00;;;;;;;3.81;72.39;101843.72;5021440;28;20129;-73
2022/11/18 02:32:56;;;;;;;0.90;0.08;;;;;;;3.81;72.61;101851.47;5017388;28;20049;-73
2022/11/18 02:35:29;;;;;;;0.20;0.10;;;;;;;3.82;72.04;101865.28;5019359;28;20045;-74
2022/11/18 02:38:01;;;;;;;2.30;0.10;;;;;;;3.81;72.70;101858.31;5017636;28;20050;-73
2022/11/18 02:40:32;;;;;;;0.70;0.00;;;;;;;3.80;72.14;101861.75;5018937;28;20052;-72
2022/11/18 02:43:05;;;;;;;0.10;0.00;;;;;;;3.77;72.42;101851.34;5017873;28;20057;-72
2022/11/18 02:45:34;;;;;;;1.35;0.00;;;;;;;3.76;72.21;101862.53;5018914;28;20053;-73
2022/11/18 02:48:06;;;;;;;2.28;0.10;;;;;;;3.75;72.03;101853.88;5018935;28;20498;-73
2022/11/18 02:50:34;;;;;;;0.70;0.13;;;;;;;3.74;72.53;101853.84;5012689;28;20065;-73
2022/11/18 02:53:04;;;;;;;1.38;0.10;;;;;;;3.73;72.49;101850.38;5016608;28;20061;-73
2022/11/18 02:55:35;;;;;;;0.57;0.10;;;;;;;3.73;72.46;101855.56;5019800;28;20046;-73
2022/11/18 02:58:05;;;;;;;0.30;0.10;;;;;;;3.74;72.29;101854.72;5018144;28;20485;-73
2022/11/18 03:00:33;;;;;;;3.47;0.15;;;;;;;3.75;72.22;101848.69;5019552;28;20479;-72
2022/11/18 03:03:00;;;;;;;0.40;0.00;;;;;;;3.76;72.57;101847.88;5021250;28;20046;-74
2022/11/18 03:05:36;;;;;;;0.93;0.10;;;;;;;3.76;72.59;101847.03;5017414;28;20423;-72
2022/11/18 03:08:10;;;;;;;0.20;0.00;;;;;;;3.80;72.12;101851.41;5018324;28;20490;-73
2022/11/18 03:10:48;;;;;;;2.55;0.10;;;;;;;3.81;72.54;101854.06;5017112;28;20561;-73
2022/11/18 03:13:22;;;;;;;0.10;0.10;;;;;;;3.81;72.68;101851.47;5020035;28;20058;-73
2022/11/18 03:15:59;;;;;;;2.83;0.10;;;;;;;3.85;72.06;101857.59;5015788;28;20685;-73
2022/11/18 03:18:31;;;;;;;0.85;0.10;;;;;;;3.86;72.02;101848.13;5018040;28;20058;-73
2022/11/18 03:21:06;;;;;;;1.58;0.10;;;;;;;3.85;72.01;101852.44;5020348;28;20057;-73
2022/11/18 03:23:38;;;;;;;1.63;0.15;;;;;;;3.85;72.36;101859.31;5020036;28;20046;-73
2022/11/18 03:26:09;;;;;;;1.23;0.40;;;;;;;3.84;72.64;101853.22;5017304;28;20153;-72
2022/11/18 03:28:43;;;;;;;0.85;0.10;;;;;;;3.82;72.64;101858.38;5018351;28;20048;-72
2022/11/18 03:31:18;;;;;;;0.50;0.10;;;;;;;3.82;72.74;101849.75;5020500;28;20053;-72
2022/11/18 03:33:48;;;;;;;;;;;;;;;3.83;72.36;101854.94;5016423;28;20058;-73
2022/11/18 03:36:18;;;;;;;0.22;0.10;;;;;;;3.82;72.07;101854.94;5018521;28;19926;-73
2022/11/18 03:38:48;;;;;;;0.55;0.10;;;;;;;3.82;71.44;101853.22;5021808;28;20053;-72
2022/11/18 03:41:18;;;;;;;0.17;0.00;;;;;;;3.82;71.72;101855.78;5021669;28;20049;-73
2022/11/18 03:43:51;;;;;;;0.82;0.00;;;;;;;3.81;71.96;101856.66;5019294;28;20137;-73
2022/11/18 03:46:24;;;;;;;1.15;0.10;;;;;;;3.79;71.63;101855.72;5015554;28;20058;-73
2022/11/18 03:48:53;;;;;;;1.35;0.10;;;;;;;3.83;71.38;101860.13;5019291;28;20503;-72
2022/11/18 03:51:24;;;;;;;0.28;0.08;;;;;;;3.84;70.89;101863.56;5018732;28;20050;-74
2022/11/18 03:53:56;;;;;;;1.20;0.10;;;;;;;3.84;71.22;101853.22;5019216;28;20052;-73
2022/11/18 03:56:30;;;;;;;1.17;0.10;;;;;;;3.85;71.08;101859.31;5023029;28;20041;-76
2022/11/18 03:59:02;;;;;;;0.38;0.05;;;;;;;3.84;71.42;101850.66;5020248;28;20049;-72
2022/11/18 04:01:36;;;;;;;2.00;0.10;;;;;;;3.74;71.12;101839.22;5015941;28;20050;-72
2022/11/18 04:04:03;;;;;;;0.10;0.00;;;;;;;3.85;71.25;101856.72;5013607;28;20407;-73
2022/11/18 04:06:36;;;;;;;0.10;0.08;;;;;;;3.85;70.86;101862.75;5017193;28;20125;-72
2022/11/18 04:09:10;;;;;;;0.80;0.10;;;;;;;3.87;70.62;101860.19;5016276;28;20045;-72
2022/11/18 04:12:03;;;;;;;1.75;0.10;;;;;;;3.88;71.23;101861.97;5015615;28;20046;-72
2022/11/18 04:14:32;;;;;;;0.60;0.10;;;;;;;3.87;70.79;101866.28;5015718;28;20058;-72
2022/11/18 04:17:00;;;;;;;3.03;0.10;;;;;;;3.88;70.83;101862.84;5017390;28;20050;-72
2022/11/18 04:19:28;;;;;;;0.00;0.00;;;;;;;3.89;70.86;101866.28;5020933;28;20060;-72
2022/11/18 04:21:55;;;;;;;0.73;0.00;;;;;;;3.90;70.72;101868.94;5014765;28;20100;-72
2022/11/18 04:24:21;;;;;;;0.80;0.10;;;;;;;3.85;70.31;101855.00;5018256;28;20049;-73
2022/11/18 04:26:48;;;;;;;0.38;0.10;;;;;;;3.89;70.31;101869.75;5015830;28;20041;-73
2022/11/18 04:29:15;;;;;;;0.43;0.10;;;;;;;3.90;70.08;101873.19;5017354;28;20045;-72
2022/11/18 04:31:42;;;;;;;0.10;0.00;;;;;;;3.88;70.55;101873.19;5018990;28;20049;-72
2022/11/18 04:34:10;;;;;;;0.35;0.10;;;;;;;3.89;70.98;101874.91;5016739;28;20050;-72
2022/11/18 04:36:37;;;;;;;0.85;0.38;;;;;;;3.91;70.41;101877.56;5016856;28;20038;-72
2022/11/18 04:39:05;;;;;;;3.88;0.10;;;;;;;3.90;70.53;101878.38;5016159;28;20138;-72
2022/11/18 04:44:16;;;;;;;0.30;0.10;;;;;;;3.89;70.42;101879.22;5020951;28;20080;-71
2022/11/18 04:46:44;;;;;;;2.35;0.30;;;;;;;3.73;71.02;101860.72;5017311;28;20053;-72
2022/11/18 04:49:14;;;;;;;0.22;0.00;;;;;;;3.86;70.39;101879.13;5012744;28;20045;-72
2022/11/18 04:51:42;;;;;;;0.43;0.10;;;;;;;3.85;70.72;101880.00;5015212;28;20053;-72
2022/11/18 04:54:10;;;;;;;0.40;0.10;;;;;;;3.77;70.94;101882.34;5018211;28;20094;-73
2022/11/18 04:56:37;;;;;;;0.40;0.10;;;;;;;3.83;70.94;101892.84;5014143;28;20137;-72
2022/11/18 04:59:05;;;;;;;0.60;0.10;;;;;;;3.83;70.88;101900.59;5021789;28;20513;-72
2022/11/18 05:01:32;;;;;;;0.60;0.10;;;;;;;3.80;70.63;101891.06;5015997;28;20042;-72
2022/11/18 05:04:00;;;;;;;0.63;0.10;;;;;;;3.81;70.56;101895.41;5018972;28;20487;-73
2022/11/18 05:06:29;;;;;;;0.10;0.08;;;;;;;3.78;71.08;101894.44;5015424;28;20042;-74
2022/11/18 05:08:57;;;;;;;0.95;0.03;;;;;;;3.79;71.11;101899.66;5015625;28;20046;-73
2022/11/18 05:14:09;;;;;;;0.77;0.10;;;;;;;3.77;70.70;101901.31;5015295;28;20610;-72
2022/11/18 05:16:36;;;;;;;0.85;0.10;;;;;;;3.78;70.78;101902.19;5018514;28;20046;-72
2022/11/18 05:19:03;;;;;;;0.60;0.10;;;;;;;3.77;71.03;101898.72;5020843;28;20172;-72
2022/11/18 05:21:32;;;;;;;0.40;0.10;;;;;;;3.79;71.39;101904.81;5023677;28;20041;-72
2022/11/18 05:23:59;;;;;;;2.17;0.20;;;;;;;3.80;71.47;101908.28;5016010;28;20633;-72
2022/11/18 05:26:26;;;;;;;0.30;0.10;;;;;;;3.81;71.02;101902.25;5016515;28;20042;-72
2022/11/18 05:28:53;;;;;;;0.98;0.10;;;;;;;3.79;71.70;101896.19;5020975;28;20055;-73
2022/11/18 05:31:20;;;;;;;1.45;0.10;;;;;;;3.84;71.12;101902.34;5019342;28;20045;-72
2022/11/18 05:33:47;;;;;;;3.03;0.10;;;;;;;3.83;71.35;101906.66;5018255;28;20423;-72
2022/11/18 05:36:16;;;;;;;10.60;1.67;;;;;;;3.85;71.16;101901.53;5017160;28;20065;-72
2022/11/18 05:38:45;;;;;;;2.25;0.25;;;;;;;3.86;71.01;101905.00;5014976;28;20068;-73
2022/11/18 05:43:09;;;;;;;1.65;0.00;;;;;;;3.86;70.51;101907.56;5018232;28;20595;-72
2022/11/18 05:44:00;;;;;;;0.75;0.10;;;;;;;3.81;70.30;101899.69;5016072;28;20046;-72
2022/11/18 05:46:27;;;;;;;1.55;0.00;;;;;;;3.87;70.32;101909.31;5011592;28;20041;-73
2022/11/18 05:48:54;;;;;;;2.17;0.00;;;;;;;3.88;70.57;101908.50;5020717;28;20573;-72
2022/11/18 05:51:21;;;;;;;0.70;0.10;;;;;;;3.89;70.49;101915.41;5023225;28;20042;-72
2022/11/18 05:53:51;;;;;;;6.10;0.10;;;;;;;3.89;70.31;101908.53;5021632;28;20045;-73
2022/11/18 05:56:22;;;;;;;0.95;0.10;;;;;;;3.89;69.61;101908.53;5020564;28;20049;-73
2022/11/18 05:58:49;;;;;;;0.03;0.03;;;;;;;3.90;69.32;101904.22;5014068;28;20080;-72
2022/11/18 06:01:21;;;;;;;2.30;0.10;;;;;;;3.85;68.89;101906.69;5018024;28;20045;-72
2022/11/18 06:03:48;;;;;;;0.10;0.08;;;;;;;3.88;68.70;101911.09;5017376;28;20046;-73
2022/11/18 06:06:21;;;;;;;0.00;0.00;;;;;;;3.81;68.73;101910.03;5018447;28;20860;-72
2022/11/18 06:08:55;;;;;;;0.10;0.00;;;;;;;3.87;68.62;101920.56;5021474;28;20050;-72
2022/11/18 06:11:23;;;;;;;0.35;0.10;;;;;;;3.88;69.32;101931.75;5020906;28;20462;-73
2022/11/18 06:13:55;;;;;;;0.10;0.08;;;;;;;3.87;68.69;101927.41;5018611;28;20494;-73
2022/11/18 06:16:28;;;;;;;0.20;0.10;;;;;;;3.87;68.79;101935.16;5022749;28;20054;-73
2022/11/18 06:18:55;;;;;;;0.63;0.10;;;;;;;3.87;68.73;101940.31;5018753;28;20111;-72
2022/11/18 06:21:22;;;;;;;0.52;0.10;;;;;;;3.82;68.50;101938.50;5021180;28;20060;-72
2022/11/18 06:23:51;;;;;;;0.25;0.00;;;;;;;3.85;68.25;101939.44;5017121;28;20057;-72
2022/11/18 06:26:18;;;;;;;0.60;0.10;;;;;;;3.84;68.29;101943.69;5018334;28;20060;-73
2022/11/18 06:28:48;;;;;;;0.10;0.10;;;;;;;3.83;68.24;101949.72;5016266;28;20048;-72
2022/11/18 06:31:16;;;;;;;2.22;0.00;;;;;;;3.81;67.90;101947.09;5020055;28;20055;-72
2022/11/18 06:33:43;;;;;;;1.10;0.10;;;;;;;3.79;67.52;101953.06;5016973;28;20054;-73
2022/11/18 06:36:10;;;;;;;2.35;1.45;;;;;;;3.77;67.33;101950.41;5016694;28;20124;-72
2022/11/18 06:38:36;;;;;;;1.48;0.10;;;;;;;3.76;67.26;101953.84;5018377;28;20050;-76
2022/11/18 06:41:05;;;;;;;0.65;0.10;;;;;;;3.74;66.88;101958.09;5016911;28;20053;-72
2022/11/18 06:43:42;;;;;;;0.30;0.10;;;;;;;3.74;66.75;101960.66;5021216;28;20429;-72
2022/11/18 06:48:55;;;;;;;0.32;0.10;;;;;;;3.71;67.27;101960.59;5020912;28;20056;-71
2022/11/18 06:51:22;;;;;;;0.45;0.10;;;;;;;3.71;67.67;101963.16;5016937;28;20520;-71
2022/11/18 06:53:49;;;;;;;1.23;0.10;;;;;;;3.71;67.34;101965.75;5019166;28;20053;-69
2022/11/18 06:56:19;;;;;;;0.52;0.00;;;;;;;3.71;67.36;101965.75;5015278;28;20046;-70
2022/11/18 06:58:46;;;;;;;0.40;0.10;;;;;;;3.69;67.42;101971.72;5017560;28;20058;-69
2022/11/18 07:01:15;;;;;;;0.85;0.20;;;;;;;3.68;67.95;101964.78;5020671;28;20541;-71
2022/11/18 07:03:43;;;;;;;2.25;0.20;;;;;;;3.67;68.09;101969.09;5016294;28;20049;-70
2022/11/18 07:06:12;;;;;;;0.35;0.10;;;;;;;3.63;67.82;101968.94;5017119;28;20042;-71
2022/11/18 07:08:41;;;;;;;0.68;0.10;;;;;;;3.65;68.09;101988.84;5019138;28;20050;-72
2022/11/18 07:11:11;;;;;;;2.33;0.65;;;;;;;3.60;68.77;102008.50;5017688;28;20422;-71
2022/11/18 07:13:39;;;;;;;0.10;0.10;;;;;;;3.55;69.27;102005.75;5021009;28;20041;-71
2022/11/18 07:16:08;;;;;;;0.20;0.10;;;;;;;3.51;69.31;102003.06;5020137;28;20053;-71
2022/11/18 07:18:37;;;;;;;0.25;0.10;;;;;;;3.45;69.81;102008.91;5015051;28;20065;-71
2022/11/18 07:21:04;;;;;;;1.85;0.20;;;;;;;3.44;69.95;101999.38;5020289;28;20069;-72
2022/11/18 07:23:31;;;;;;;2.05;0.20;;;;;;;3.23;69.47;101960.00;5018922;28;20048;-70
2022/11/18 07:25:59;;;;;;;0.77;0.20;;;;;;;3.30;70.08;101978.34;5019094;28;20327;-70
2022/11/18 07:28:26;;;;;;;0.47;0.30;;;;;;;3.38;70.18;102002.66;5017636;28;20042;-70
2022/11/18 07:31:01;;;;;;;0.20;0.10;;;;;;;3.36;69.88;102012.09;5018635;28;20128;-70
2022/11/18 07:33:28;;;;;;;0.88;0.10;;;;;;;3.34;69.74;102008.56;5021297;28;20061;-70
2022/11/18 07:35:54;;;;;;;0.52;0.20;;;;;;;3.34;69.61;102005.13;5017789;28;20521;-70
2022/11/18 07:38:21;;;;;;;0.75;0.20;;;;;;;3.33;69.97;101999.09;5020713;28;20689;-71
2022/11/18 07:40:48;;;;;;;1.95;0.20;;;;;;;3.28;69.91;101992.91;5018618;28;20535;-70
2022/11/18 07:43:15;;;;;;;0.30;0.20;;;;;;;3.35;69.38;102001.69;5018558;28;20042;-71
2022/11/18 07:45:42;;;;;;;0.85;0.17;;;;;;;3.34;70.01;101999.97;5016035;28;20064;-71
2022/11/18 07:48:10;;;;;;;0.40;0.40;;;;;;;3.35;69.73;102002.56;5018500;28;20061;-71
2022/11/18 07:50:37;;;;;;;2.15;0.10;;;;;;;3.35;69.81;101997.41;5015339;28;20049;-72
2022/11/18 07:53:04;;;;;;;0.80;0.20;;;;;;;3.32;70.19;101994.72;5017810;28;20046;-70
2022/11/18 07:55:31;;;;;;;2.20;0.40;;;;;;;3.33;69.83;101988.75;5017349;28;20483;-70
2022/11/18 07:57:58;;;;;;;0.40;0.22;;;;;;;3.41;69.79;102001.00;5019453;28;20052;-70
2022/11/18 08:00:25;;;;;;;0.60;0.15;;;;;;;3.41;69.90;101999.28;5015784;28;20041;-70
2022/11/18 08:02:52;;;;;;;0.40;0.10;;;;;;;3.43;69.70;102005.41;5017020;28;20053;-70
2022/11/18 08:05:20;;;;;;;1.40;0.40;;;;;;;3.46;69.28;102009.78;5018840;28;20052;-68
2022/11/18 08:07:47;;;;;;;3.83;0.20;;;;;;;3.48;69.55;102013.28;5015385;28;20044;-69
2022/11/18 08:10:14;;;;;;;2.45;0.30;;;;;;;3.50;68.92;102016.78;5017583;28;20053;-69
2022/11/18 08:12:41;;;;;;;3.55;0.30;;;;;;;3.51;69.09;102015.97;5020983;28;20479;-70
2022/11/18 08:15:08;;;;;;;2.08;0.45;;;;;;;3.54;68.60;102010.91;5018445;28;20041;-68
2022/11/18 08:17:35;;;;;;;0.75;0.68;;;;;;;3.54;68.14;102016.94;5015274;28;20396;-69
2022/11/18 08:20:02;;;;;;;0.15;0.10;;;;;;;3.52;68.23;102008.25;5017878;28;20058;-69
2022/11/18 08:22:30;;;;;;;1.35;0.10;;;;;;;3.55;68.64;102010.06;5017466;28;20502;-68
2022/11/18 08:24:57;;;;;;;1.58;0.20;;;;;;;3.55;69.05;102015.22;5013446;28;20124;-70
2022/11/18 08:27:24;;;;;;;0.63;0.20;;;;;;;3.54;68.25;102016.94;5013358;28;20513;-69
2022/11/18 08:29:51;;;;;;;2.05;0.20;;;;;;;3.56;68.66;102015.28;5018519;28;20740;-68
2022/11/18 08:32:18;;;;;;;1.00;0.30;;;;;;;3.57;68.33;102023.91;5016933;28;20073;-70
2022/11/18 08:34:45;;;;;;;0.68;0.30;;;;;;;3.57;68.26;102026.50;5016990;28;20127;-69
2022/11/18 08:37:12;;;;;;;0.10;0.10;;;;;;;3.57;68.90;102022.19;5017277;28;20057;-69
2022/11/18 08:39:40;;;;;;;0.70;0.20;;;;;;;3.59;68.77;102019.66;5018549;28;20053;-70
2022/11/18 08:42:07;;;;;;;2.45;0.20;;;;;;;3.61;68.06;102025.72;5016718;28;20069;-69
2022/11/18 08:44:34;;;;;;;0.20;0.20;;;;;;;3.61;68.62;102023.16;5016238;28;20054;-69
2022/11/18 08:47:01;;;;;;;0.47;0.20;;;;;;;3.65;68.16;102025.00;5015426;28;20064;-70
2022/11/18 08:49:28;;;;;;;0.10;0.10;;;;;;;3.51;67.95;101997.88;5018117;28;20057;-70
2022/11/18 08:51:55;;;;;;;0.63;0.20;;;;;;;3.65;68.59;102025.00;5015897;28;20120;-71
2022/11/18 08:54:22;;;;;;;1.50;0.25;;;;;;;3.69;67.84;102028.56;5021329;28;20056;-69
2022/11/18 08:56:50;;;;;;;0.28;0.13;;;;;;;3.69;68.68;102029.44;5020983;28;20124;-68
2022/11/18 08:59:17;;;;;;;0.77;0.30;;;;;;;3.70;68.01;102023.44;5021516;28;20054;-68
2022/11/18 09:01:44;;;;;;;1.35;0.22;;;;;;;3.72;67.47;102037.28;5020230;28;20038;-69
2022/11/18 09:04:11;;;;;;;0.60;0.30;;;;;;;3.68;67.98;102022.53;5021911;28;20058;-69
2022/11/18 09:06:39;;;;;;;0.28;0.20;;;;;;;3.68;67.57;102027.69;5020926;28;20080;-70
2022/11/18 09:09:06;;;;;;;0.20;0.10;;;;;;;3.73;67.88;102038.13;5018550;28;20042;-70
2022/11/18 09:11:34;;;;;;;0.45;0.20;;;;;;;3.73;67.47;102030.38;5019852;28;20096;-69
2022/11/18 09:14:03;;;;;;;0.10;0.10;;;;;;;3.73;67.27;102035.56;5020481;28;20050;-69
2022/11/18 09:16:32;;;;;;;0.75;0.10;;;;;;;3.73;67.82;102027.81;5021093;28;20485;-69
2022/11/18 09:19:00;;;;;;;0.80;0.20;;;;;;;3.75;67.72;102023.56;5016572;28;20061;-70
2022/11/18 09:21:27;;;;;;;0.45;0.20;;;;;;;3.70;67.71;102020.88;5022462;28;20045;-69
2022/11/18 09:23:54;;;;;;;1.00;0.25;;;;;;;3.79;67.69;102030.59;5017616;28;20088;-69
2022/11/18 09:26:23;;;;;;;0.35;0.10;;;;;;;3.71;67.02;102027.78;5018091;28;20096;-69
2022/11/18 09:28:52;;;;;;;0.80;0.20;;;;;;;3.75;67.39;102028.72;5018377;28;20056;-69
2022/11/18 09:31:21;;;;;;;0.30;0.20;;;;;;;3.76;66.68;102039.13;5020539;28;20038;-68
2022/11/18 09:33:48;;;;;;;0.38;0.10;;;;;;;3.73;66.89;102033.88;5019525;28;20045;-69
2022/11/18 09:36:16;;;;;;;1.30;0.20;;;;;;;3.72;67.25;102032.09;5017686;28;20821;-69
2022/11/18 09:38:43;;;;;;;0.25;0.17;;;;;;;3.71;67.67;102032.06;5020609;28;20062;-69
2022/11/18 09:41:27;;;;;;;0.20;0.10;;;;;;;3.70;67.58;102028.63;5021116;28;20063;-70
2022/11/18 09:44:06;;;;;;;1.67;0.10;;;;;;;3.72;67.60;102033.81;5020120;28;20099;-69
2022/11/18 09:46:44;;;;;;;0.20;0.10;;;;;;;3.62;66.96;102016.31;5021653;28;20037;-71
2022/11/18 09:49:15;;;;;;;1.52;0.10;;;;;;;3.71;66.54;102039.81;5018205;28;20482;-69
2022/11/18 09:51:45;;;;;;;0.10;0.10;;;;;;;3.71;66.20;102058.78;5018645;28;20132;-69
2022/11/18 09:54:20;;;;;;;0.63;0.20;;;;;;;3.69;65.78;102050.09;5017618;28;20045;-69
2022/11/18 09:56:48;;;;;;;2.40;0.50;;;;;;;3.66;65.10;102038.81;5021511;28;20442;-69
2022/11/18 09:59:17;;;;;;;1.05;0.20;;;;;;;3.64;64.92;102041.31;5023064;28;20053;-68
2022/11/18 10:01:46;;;;;;;0.40;0.10;;;;;;;3.64;65.13;102041.31;5020721;28;20038;-70
2022/11/18 10:04:15;;;;;;;0.15;0.10;;;;;;;3.65;65.95;102045.69;5019588;28;20042;-70
2022/11/18 10:06:43;;;;;;;0.30;0.10;;;;;;;3.67;65.75;102041.44;5019951;28;20057;-69
2022/11/18 10:09:26;;;;;;;1.10;0.30;;;;;;;3.70;66.02;102044.13;5023195;28;20073;-71
2022/11/18 10:12:09;;;;;;;2.67;0.20;;;;;;;3.72;66.33;102045.03;5020823;28;20460;-70
2022/11/18 10:14:50;;;;;;;0.13;0.13;;;;;;;3.73;65.82;102045.88;5018085;28;20046;-69
2022/11/18 10:17:35;;;;;;;1.63;0.10;;;;;;;3.72;65.86;102042.44;5019258;28;20497;-69
2022/11/18 10:20:19;;;;;;;1.27;0.10;;;;;;;3.74;65.86;102037.34;5018176;28;20077;-69
2022/11/18 10:22:51;;;;;;;1.67;0.10;;;;;;;3.68;65.87;102027.69;5022302;28;20053;-69
2022/11/18 10:25:18;;;;;;;0.10;0.10;;;;;;;3.77;65.57;102043.47;5023471;28;20135;-71
2022/11/18 10:27:47;;;;;;;0.40;0.20;;;;;;;3.79;65.67;102036.63;5019559;28;20049;-71
2022/11/18 10:30:17;;;;;;;0.38;0.20;;;;;;;3.82;65.08;102038.44;5015324;28;20146;-70
2022/11/18 10:32:56;;;;;;;0.50;0.20;;;;;;;3.87;63.57;102030.78;5016744;28;20045;-70
2022/11/18 10:35:27;;;;;;;0.65;0.10;;;;;;;3.90;64.61;102041.22;5018550;28;20052;-69
2022/11/18 10:38:01;;;;;;;0.20;0.20;;;;;;;3.92;65.14;102043.03;5015720;28;20049;-69
2022/11/18 10:40:31;;;;;;;0.32;0.25;;;;;;;3.95;65.02;102047.41;5017173;28;20099;-69
2022/11/18 10:42:58;;;;;;;0.25;0.10;;;;;;;3.96;64.74;102049.19;5025473;28;20051;-70
2022/11/18 10:45:27;;;;;;;2.55;0.20;;;;;;;3.98;65.28;102042.31;5022390;28;20049;-70
2022/11/18 10:48:08;;;;;;;1.42;0.28;;;;;;;4.00;65.05;102054.47;5019762;28;20049;-71
2022/11/18 10:50:37;;;;;;;0.50;0.10;;;;;;;3.99;64.68;102050.16;5016315;28;20104;-71
2022/11/18 10:53:05;;;;;;;0.40;0.10;;;;;;;4.01;64.53;102048.50;5018392;28;20050;-70
2022/11/18 10:55:33;;;;;;;0.10;0.10;;;;;;;4.01;64.80;102047.59;5017913;28;20053;-71
2022/11/18 10:58:10;;;;;;;1.08;0.10;;;;;;;4.01;64.54;102045.91;5017342;28;20054;-71
2022/11/18 11:00:44;;;;;;;2.20;0.20;;;;;;;3.99;63.58;102050.16;5021786;28;20489;-71
2022/11/18 11:03:32;;;;;;;0.75;0.10;;;;;;;4.01;64.08;102050.16;5017739;28;20062;-71
2022/11/18 11:06:31;;;;;;;0.28;0.08;;;;;;;4.01;64.08;102042.41;5021959;28;20053;-70
2022/11/18 11:09:00;;;;;;;0.60;0.10;;;;;;;3.92;64.78;102031.81;5014669;28;20057;-70
2022/11/18 11:11:30;;;;;;;0.63;0.10;;;;;;;4.02;64.98;102052.81;5021919;28;20057;-70
2022/11/18 11:14:06;;;;;;;2.03;0.10;;;;;;;4.01;64.28;102053.66;5021740;28;20041;-70
2022/11/18 11:16:41;;;;;;;0.60;0.60;;;;;;;4.04;64.58;102055.44;5012872;28;20038;-71
2022/11/18 11:19:12;;;;;;;;;;;;;;;4.06;64.92;102046.00;5019516;28;20053;-69
2022/11/18 11:21:39;;;;;;;1.95;0.45;;;;;;;4.04;64.51;102046.00;5019629;28;19928;-71
2022/11/18 11:24:11;;;;;;;1.95;0.20;;;;;;;4.06;65.43;102030.50;5022702;28;20050;-72
2022/11/18 11:26:46;;;;;;;0.35;0.10;;;;;;;4.11;65.41;102035.81;5018009;28;20072;-73
2022/11/18 11:29:22;;;;;;;2.05;0.10;;;;;;;4.12;65.27;102038.44;5013765;28;20049;-73
2022/11/18 11:31:58;;;;;;;0.30;0.30;;;;;;;4.11;65.23;102034.09;5013698;28;20056;-72
2022/11/18 11:34:34;;;;;;;0.55;0.13;;;;;;;4.17;65.66;102033.41;5020745;28;20045;-71
2022/11/18 11:37:08;;;;;;;0.57;0.20;;;;;;;4.16;65.62;102029.94;5016185;28;20486;-71
2022/11/18 11:39:46;;;;;;;0.10;0.10;;;;;;;4.20;65.46;102034.34;5016530;28;20438;-70
2022/11/18 11:42:27;;;;;;;1.08;0.30;;;;;;;4.20;64.58;102034.34;5019262;28;20795;-70
2022/11/18 11:45:07;;;;;;;0.30;0.30;;;;;;;4.15;64.62;102030.75;5020754;28;20049;-69
2022/11/18 11:47:49;;;;;;;0.20;0.10;;;;;;;4.17;62.94;102039.44;5016062;28;20052;-73
2022/11/18 11:50:25;;;;;;;0.03;0.03;;;;;;;4.12;62.44;102037.56;5019149;28;20053;-70
2022/11/18 11:53:14;;;;;;;0.68;0.10;;;;;;;4.15;62.65;102035.91;5016485;28;20048;-70
2022/11/18 11:55:59;;;;;;;0.98;0.10;;;;;;;4.16;62.96;102031.66;5017358;28;20129;-69
2022/11/18 11:58:46;;;;;;;1.35;0.10;;;;;;;4.17;63.26;102039.44;5014264;28;20053;-70
2022/11/18 12:01:20;;;;;;;0.95;0.20;;;;;;;4.16;63.25;102039.41;5018596;28;20060;-71
2022/11/18 12:03:52;;;;;;;0.43;0.13;;;;;;;4.12;62.68;102041.00;5012139;28;20061;-70
2022/11/18 12:06:20;;;;;;;2.15;0.10;;;;;;;4.08;62.60;102048.66;5017870;28;20052;-73